Time;durP1;ratioP1;P1;durP2;ratioP2;P2;SDS_P1;SDS_P2;PMS_P1;PMS_P2;Temp;Humidity;BMP_temperature;BMP_pressure;BME280_temperature;BME280_humidity;BME280_pressure;Samples;Min_cycle;Max_cycle;Signal;HPM_P1;HPM_P2
2022/07/11 00:01:49;;;;;;;2.67;1.50;;;15.20;99.90;;;;;;4992588;28;20666;-74
2022/07/11 00:04:14;;;;;;;5.50;1.10;;;15.20;99.90;;;;;;4991923;28;20651;-74
2022/07/11 00:06:40;;;;;;;3.13;1.10;;;15.20;99.90;;;;;;4991536;28;20177;-74
2022/07/11 00:09:05;;;;;;;5.97;3.07;;;15.20;99.90;;;;;;4991467;28;20199;-74
2022/07/11 00:11:31;;;;;;;1.50;1.10;;;15.20;99.90;;;;;;4991772;28;20197;-75
2022/07/11 00:13:57;;;;;;;1.63;0.90;;;15.10;99.90;;;;;;4991761;28;20268;-75
2022/07/11 00:16:22;;;;;;;5.83;1.33;;;15.10;99.90;;;;;;4991960;28;20171;-75
2022/07/11 00:18:48;;;;;;;3.83;1.20;;;15.00;99.90;;;;;;4995181;28;20541;-76
2022/07/11 00:21:13;;;;;;;1.90;1.00;;;15.00;99.90;;;;;;4995248;28;20197;-75
2022/07/11 00:23:39;;;;;;;4.67;1.43;;;14.90;99.90;;;;;;4995361;28;20232;-75
2022/07/11 00:26:05;;;;;;;1.83;1.00;;;14.80;99.90;;;;;;4995024;28;20185;-75
2022/07/11 00:28:30;;;;;;;1.93;1.10;;;14.70;99.90;;;;;;4995514;28;20208;-75
2022/07/11 00:30:56;;;;;;;1.00;0.90;;;14.70;99.90;;;;;;4996211;28;20404;-74
2022/07/11 00:33:21;;;;;;;2.40;1.30;;;14.60;99.90;;;;;;5009079;23;20229;-72
2022/07/11 00:35:47;;;;;;;1.97;1.07;;;14.50;99.90;;;;;;4995112;28;20172;-71
2022/07/11 00:38:13;;;;;;;4.00;1.50;;;14.40;99.90;;;;;;4995327;28;20169;-72
2022/07/11 00:40:39;;;;;;;2.40;0.93;;;14.40;99.90;;;;;;4995162;28;20170;-70
2022/07/11 00:43:05;;;;;;;3.10;1.30;;;14.40;99.90;;;;;;4995156;28;20451;-71
2022/07/11 00:45:31;;;;;;;1.80;1.03;;;14.30;99.90;;;;;;4994992;28;20663;-71
2022/07/11 00:47:56;;;;;;;1.03;0.93;;;14.20;99.90;;;;;;4993767;28;20430;-71
2022/07/11 00:50:23;;;;;;;2.73;1.17;;;14.20;99.90;;;;;;4995055;28;20630;-71
2022/07/11 00:52:52;;;;;;;3.37;1.57;;;14.20;99.90;;;;;;4994613;28;20343;-71
2022/07/11 00:55:19;;;;;;;1.87;1.20;;;14.10;99.90;;;;;;4994801;28;20413;-71
2022/07/11 00:57:45;;;;;;;3.30;1.00;;;14.00;99.90;;;;;;4994950;28;20423;-71
2022/07/11 01:00:12;;;;;;;4.37;1.33;;;13.90;99.90;;;;;;4995033;28;20408;-71
2022/07/11 01:02:38;;;;;;;2.10;1.77;;;13.90;99.90;;;;;;4994912;28;20201;-71
2022/07/11 01:05:04;;;;;;;1.50;1.30;;;13.90;99.90;;;;;;4994580;28;20459;-71
2022/07/11 01:07:30;;;;;;;1.87;1.40;;;13.90;99.90;;;;;;4994586;28;20179;-71
2022/07/11 01:09:56;;;;;;;3.50;1.10;;;13.90;99.90;;;;;;4994725;28;20876;-71
2022/07/11 01:12:22;;;;;;;1.20;1.10;;;13.80;99.90;;;;;;4994467;28;20467;-71
2022/07/11 01:14:54;;;;;;;3.53;1.97;;;13.70;99.90;;;;;;4994410;28;20157;-71
2022/07/11 01:17:20;;;;;;;2.80;1.20;;;13.70;99.90;;;;;;4994328;28;20819;-71
2022/07/11 01:19:46;;;;;;;1.23;1.03;;;13.60;99.90;;;;;;4994326;28;20412;-71
2022/07/11 01:22:14;;;;;;;1.83;1.23;;;13.50;99.90;;;;;;4994081;28;20420;-71
2022/07/11 01:24:42;;;;;;;3.10;1.40;;;13.50;99.90;;;;;;4994386;28;20177;-70
2022/07/11 01:27:08;;;;;;;1.50;0.90;;;13.50;99.90;;;;;;4994132;28;20447;-71
2022/07/11 01:29:34;;;;;;;3.40;1.57;;;13.40;99.90;;;;;;4993266;28;20535;-71
2022/07/11 01:31:59;;;;;;;2.17;1.20;;;13.40;99.90;;;;;;4993913;28;20962;-71
2022/07/11 01:34:25;;;;;;;2.17;1.00;;;13.30;99.90;;;;;;4994066;28;20184;-71
2022/07/11 01:36:50;;;;;;;4.20;1.37;;;13.30;99.90;;;;;;4993917;28;20306;-70
2022/07/11 01:39:16;;;;;;;1.60;1.30;;;13.20;99.90;;;;;;4993966;28;20172;-71
2022/07/11 01:41:41;;;;;;;5.73;1.20;;;13.10;99.90;;;;;;4993923;28;20189;-71
2022/07/11 01:44:07;;;;;;;1.20;1.10;;;13.10;99.90;;;;;;4994170;28;20177;-72
2022/07/11 01:46:32;;;;;;;2.80;1.20;;;13.10;99.90;;;;;;4993815;28;20544;-71
2022/07/11 01:48:58;;;;;;;1.47;1.10;;;13.10;99.90;;;;;;4993705;28;20575;-71
2022/07/11 01:51:24;;;;;;;3.67;1.43;;;13.10;99.90;;;;;;4993638;28;20165;-71
2022/07/11 01:53:50;;;;;;;5.83;1.27;;;13.10;99.90;;;;;;4993971;28;20510;-71
2022/07/11 01:56:16;;;;;;;1.67;0.90;;;13.00;99.90;;;;;;4993870;28;20424;-71
2022/07/11 01:58:42;;;;;;;2.47;1.47;;;13.00;99.90;;;;;;5008537;28;20442;-71
2022/07/11 02:01:07;;;;;;;7.80;1.40;;;12.90;99.90;;;;;;4993368;28;20714;-71
2022/07/11 02:03:33;;;;;;;2.13;1.87;;;12.90;99.90;;;;;;4993437;28;20436;-71
2022/07/11 02:05:59;;;;;;;5.47;1.33;;;12.80;99.90;;;;;;4993331;28;20635;-71
2022/07/11 02:08:24;;;;;;;1.10;1.00;;;12.80;99.90;;;;;;4993387;28;20211;-71
2022/07/11 02:10:52;;;;;;;3.30;1.10;;;12.70;99.90;;;;;;4993471;28;20197;-71
2022/07/11 02:13:22;;;;;;;1.70;1.00;;;12.70;99.90;;;;;;4993390;28;20182;-72
2022/07/11 02:15:50;;;;;;;1.93;1.27;;;12.70;99.90;;;;;;4993504;28;20405;-71
2022/07/11 02:18:17;;;;;;;1.10;1.00;;;12.70;99.90;;;;;;4993201;28;20941;-71
2022/07/11 02:20:45;;;;;;;2.63;1.10;;;12.60;99.90;;;;;;4993296;28;20408;-73
2022/07/11 02:23:12;;;;;;;2.57;1.40;;;12.60;99.90;;;;;;4993245;28;20431;-71
2022/07/11 02:25:40;;;;;;;1.20;1.10;;;12.60;99.90;;;;;;4993116;28;20416;-71
2022/07/11 02:28:08;;;;;;;6.07;1.40;;;12.50;99.90;;;;;;4993112;28;20424;-70
2022/07/11 02:30:35;;;;;;;4.50;1.20;;;12.50;99.90;;;;;;4992993;28;20447;-70
2022/07/11 02:33:00;;;;;;;2.50;1.30;;;12.50;99.90;;;;;;4992955;28;20533;-71
2022/07/11 02:35:26;;;;;;;3.20;1.13;;;12.50;99.90;;;;;;4992938;28;20445;-70
2022/07/11 02:37:52;;;;;;;2.10;1.20;;;12.40;99.90;;;;;;4992907;28;20173;-70
2022/07/11 02:40:18;;;;;;;2.70;1.40;;;12.40;99.90;;;;;;4992567;28;20184;-71
2022/07/11 02:42:43;;;;;;;1.43;1.23;;;12.40;99.90;;;;;;4992944;28;21121;-71
2022/07/11 02:45:09;;;;;;;2.83;1.20;;;12.50;99.90;;;;;;4993352;28;20173;-71
2022/07/11 02:47:38;;;;;;;2.87;1.07;;;12.40;99.90;;;;;;4993156;28;20243;-71
2022/07/11 02:50:04;;;;;;;2.60;1.90;;;12.40;99.90;;;;;;4992653;28;20193;-71
2022/07/11 02:52:29;;;;;;;3.33;1.43;;;12.40;99.90;;;;;;4993025;28;20432;-71
2022/07/11 02:54:55;;;;;;;1.20;1.10;;;12.40;99.90;;;;;;4993025;28;20573;-71
2022/07/11 02:57:20;;;;;;;2.60;1.53;;;12.40;99.90;;;;;;4992577;28;20647;-70
2022/07/11 02:59:46;;;;;;;1.37;1.23;;;12.40;99.90;;;;;;4992649;28;20252;-71
2022/07/11 03:02:11;;;;;;;1.33;0.97;;;12.30;99.90;;;;;;4992750;28;20197;-71
2022/07/11 03:04:37;;;;;;;3.47;1.47;;;12.30;99.90;;;;;;4992542;28;20181;-70
2022/07/11 03:07:03;;;;;;;4.60;1.83;;;12.30;99.90;;;;;;4992473;28;20172;-71
2022/07/11 03:09:28;;;;;;;4.60;1.93;;;12.20;99.90;;;;;;4992804;28;20219;-71
2022/07/11 03:11:54;;;;;;;1.37;1.10;;;12.20;99.90;;;;;;4992529;28;20211;-70
2022/07/11 03:14:19;;;;;;;1.83;1.57;;;12.20;99.90;;;;;;4992627;28;20639;-72
2022/07/11 03:16:45;;;;;;;1.00;0.90;;;12.20;99.90;;;;;;4991129;28;20185;-70
2022/07/11 03:19:10;;;;;;;1.20;1.10;;;12.20;99.90;;;;;;4992595;28;20180;-70
2022/07/11 03:21:36;;;;;;;1.40;1.30;;;12.10;99.90;;;;;;4991164;28;20247;-71
2022/07/11 03:24:02;;;;;;;2.60;1.50;;;12.10;99.90;;;;;;4992583;28;20192;-71
2022/07/11 03:26:28;;;;;;;1.93;1.60;;;12.10;99.90;;;;;;4992405;28;20181;-70
2022/07/11 03:28:54;;;;;;;1.20;1.03;;;12.00;99.90;;;;;;4992238;28;20458;-70
2022/07/11 03:31:19;;;;;;;4.63;1.67;;;12.00;99.90;;;;;;4992244;28;20558;-70
2022/07/11 03:33:45;;;;;;;2.13;1.60;;;12.00;99.90;;;;;;4992404;28;20181;-71
2022/07/11 03:36:10;;;;;;;1.53;1.20;;;12.00;99.90;;;;;;4992525;28;20165;-71
2022/07/11 03:38:37;;;;;;;3.13;1.10;;;11.90;99.90;;;;;;4992204;28;20161;-71
2022/07/11 03:41:03;;;;;;;1.60;1.20;;;11.90;99.90;;;;;;4992287;28;20170;-71
2022/07/11 03:43:29;;;;;;;2.07;1.30;;;11.90;99.90;;;;;;4992234;28;21022;-71
2022/07/11 03:45:55;;;;;;;1.40;1.10;;;11.90;99.90;;;;;;4992238;28;20401;-71
2022/07/11 03:48:21;;;;;;;3.23;1.37;;;11.90;99.90;;;;;;4992072;28;20176;-71
2022/07/11 03:50:47;;;;;;;1.73;1.07;;;11.90;99.90;;;;;;4992270;28;20533;-71
2022/07/11 03:53:13;;;;;;;2.20;2.00;;;11.90;99.90;;;;;;4995533;28;20655;-71
2022/07/11 03:55:39;;;;;;;3.27;1.50;;;11.90;99.90;;;;;;4995938;28;20458;-72
2022/07/11 03:58:05;;;;;;;1.13;1.03;;;12.00;99.90;;;;;;4996014;28;20594;-71
2022/07/11 04:00:31;;;;;;;2.27;1.60;;;11.90;99.90;;;;;;4996214;28;20658;-71
2022/07/11 04:02:57;;;;;;;3.03;2.00;;;12.00;99.90;;;;;;4995690;28;20279;-71
2022/07/11 04:05:23;;;;;;;1.30;1.20;;;12.00;99.90;;;;;;4996089;28;20412;-71
2022/07/11 04:07:49;;;;;;;2.30;1.07;;;12.00;99.90;;;;;;4995873;28;20458;-71
2022/07/11 04:10:17;;;;;;;2.80;1.70;;;12.00;99.90;;;;;;4995908;28;20811;-69
2022/07/11 04:12:42;;;;;;;1.80;1.17;;;12.10;99.90;;;;;;4995826;28;20220;-74
2022/07/11 04:15:09;;;;;;;1.50;1.40;;;12.10;99.90;;;;;;4995607;28;20408;-70
2022/07/11 04:17:35;;;;;;;2.70;1.10;;;12.10;99.90;;;;;;4995669;28;20511;-72
2022/07/11 04:20:00;;;;;;;2.90;1.30;;;12.10;99.90;;;;;;4995616;28;20499;-72
2022/07/11 04:22:26;;;;;;;5.07;1.67;;;12.20;99.90;;;;;;4995616;28;20189;-70
2022/07/11 04:24:51;;;;;;;1.87;1.13;;;12.20;99.90;;;;;;4995691;28;20177;-71
2022/07/11 04:27:17;;;;;;;2.83;1.50;;;12.50;99.90;;;;;;4995505;28;20165;-71
2022/07/11 04:29:43;;;;;;;2.63;1.30;;;13.30;99.90;;;;;;4995608;28;20259;-70
2022/07/11 04:32:08;;;;;;;3.23;1.60;;;14.00;99.90;;;;;;4995214;28;20702;-70
2022/07/11 04:34:34;;;;;;;4.23;1.10;;;14.20;99.90;;;;;;4995405;28;20181;-70
2022/07/11 04:36:59;;;;;;;1.40;1.10;;;14.40;99.90;;;;;;4995284;28;20173;-70
2022/07/11 04:39:25;;;;;;;2.17;1.10;;;15.10;99.90;;;;;;4995467;28;20523;-70
2022/07/11 04:41:51;;;;;;;2.00;1.10;;;15.90;99.90;;;;;;4995448;28;20722;-71
2022/07/11 04:44:16;;;;;;;1.10;0.93;;;16.30;99.90;;;;;;4995300;28;20260;-71
2022/07/11 04:46:42;;;;;;;3.07;1.20;;;16.70;99.90;;;;;;4995022;28;20264;-71
2022/07/11 04:49:08;;;;;;;1.73;1.00;;;16.10;99.90;;;;;;4995126;28;20257;-71
2022/07/11 04:51:33;;;;;;;1.47;1.33;;;15.10;99.90;;;;;;4997773;28;20196;-71
2022/07/11 04:53:59;;;;;;;3.67;2.57;;;14.90;99.90;;;;;;4997222;28;20174;-72
2022/07/11 04:56:24;;;;;;;2.60;1.43;;;14.80;99.90;;;;;;4997453;28;20658;-71
2022/07/11 04:58:50;;;;;;;1.53;1.40;;;14.70;99.90;;;;;;4997018;28;20171;-69
2022/07/11 05:01:15;;;;;;;1.17;1.00;;;14.90;99.90;;;;;;4994607;28;20182;-70
2022/07/11 05:03:41;;;;;;;5.47;3.43;;;15.80;99.90;;;;;;4994670;28;20213;-70
2022/07/11 05:06:07;;;;;;;8.60;1.77;;;15.90;99.90;;;;;;4994581;28;20192;-70
2022/07/11 05:08:36;;;;;;;1.73;1.00;;;15.40;99.90;;;;;;4994716;28;20181;-70
2022/07/11 05:11:02;;;;;;;3.20;1.00;;;15.30;99.90;;;;;;4994656;28;20166;-70
2022/07/11 05:13:28;;;;;;;1.03;1.03;;;16.20;99.90;;;;;;4994512;28;20699;-70
2022/07/11 05:15:53;;;;;;;2.40;1.20;;;16.10;99.90;;;;;;4994410;28;20418;-70
2022/07/11 05:18:19;;;;;;;1.83;1.10;;;16.60;99.90;;;;;;4994470;28;20207;-70
2022/07/11 05:20:45;;;;;;;2.53;1.13;;;16.90;99.90;;;;;;4993329;28;20540;-70
2022/07/11 05:23:10;;;;;;;3.30;1.70;;;16.50;99.90;;;;;;4994288;28;20663;-70
2022/07/11 05:25:36;;;;;;;4.60;1.03;;;16.40;99.90;;;;;;4994568;28;20167;-70
2022/07/11 05:28:01;;;;;;;5.03;1.20;;;17.30;99.90;;;;;;4994233;28;20169;-71
2022/07/11 05:30:27;;;;;;;1.33;1.00;;;17.00;99.90;;;;;;4994237;28;20280;-71
2022/07/11 05:32:52;;;;;;;0.97;0.87;;;17.40;99.90;;;;;;4994075;28;20217;-74
2022/07/11 05:35:18;;;;;;;1.60;1.00;;;17.10;99.90;;;;;;4994537;28;20537;-72
2022/07/11 05:37:43;;;;;;;0.70;0.70;;;17.10;99.90;;;;;;4994255;28;20782;-71
2022/07/11 05:40:10;;;;;;;2.00;1.20;;;17.80;99.90;;;;;;4994231;28;20203;-71
2022/07/11 05:42:35;;;;;;;3.10;1.27;;;17.40;99.90;;;;;;4994189;28;20197;-72
2022/07/11 05:45:01;;;;;;;1.20;0.93;;;17.10;99.90;;;;;;4994180;28;20696;-71
2022/07/11 05:47:26;;;;;;;2.40;0.97;;;17.40;99.90;;;;;;4993978;28;20179;-70
2022/07/11 05:49:52;;;;;;;3.00;1.33;;;18.30;99.90;;;;;;4993756;28;20211;-71
2022/07/11 05:52:17;;;;;;;2.90;1.43;;;18.90;99.90;;;;;;4994139;28;20190;-71
2022/07/11 05:54:43;;;;;;;1.37;0.90;;;19.70;99.90;;;;;;4993850;28;20233;-71
2022/07/11 05:57:08;;;;;;;3.23;1.00;;;18.90;99.90;;;;;;4993700;28;20184;-70
2022/07/11 05:59:35;;;;;;;2.13;1.13;;;19.30;99.90;;;;;;4993842;28;20168;-71
2022/07/11 06:02:02;;;;;;;2.17;1.00;;;18.40;99.90;;;;;;4993699;28;20195;-70
2022/07/11 06:04:28;;;;;;;1.43;1.20;;;19.00;99.90;;;;;;4993655;28;20469;-70
2022/07/11 06:06:53;;;;;;;2.90;1.60;;;19.30;99.90;;;;;;4993319;28;20498;-70
2022/07/11 06:09:19;;;;;;;1.20;1.10;;;19.60;99.90;;;;;;4993909;28;20219;-71
2022/07/11 06:11:44;;;;;;;2.60;1.20;;;18.90;99.90;;;;;;4994566;28;20195;-70
2022/07/11 06:14:10;;;;;;;1.67;1.23;;;18.90;99.90;;;;;;4993932;28;20200;-70
2022/07/11 06:16:35;;;;;;;1.23;1.10;;;19.80;99.90;;;;;;4994915;28;20172;-70
2022/07/11 06:19:01;;;;;;;1.97;0.93;;;20.50;99.90;;;;;;4994413;28;20202;-70
2022/07/11 06:21:27;;;;;;;2.00;1.10;;;19.90;99.90;;;;;;4993699;28;20590;-71
2022/07/11 06:23:54;;;;;;;1.33;1.20;;;19.70;99.90;;;;;;4993855;28;20491;-71
2022/07/11 06:26:20;;;;;;;2.70;1.50;;;20.90;99.90;;;;;;4993371;28;20176;-71
2022/07/11 06:28:46;;;;;;;1.60;0.93;;;21.00;99.90;;;;;;4993324;28;20506;-71
2022/07/11 06:31:12;;;;;;;1.67;1.33;;;21.40;99.90;;;;;;4993677;28;20498;-71
2022/07/11 06:33:38;;;;;;;1.67;1.10;;;22.40;99.90;;;;;;4993117;28;20439;-72
2022/07/11 06:36:05;;;;;;;2.03;1.00;;;20.70;99.90;;;;;;4991967;28;20419;-70
2022/07/11 06:38:33;;;;;;;1.90;1.10;;;20.70;99.90;;;;;;4993251;28;20452;-71
2022/07/11 06:41:00;;;;;;;2.63;0.90;;;22.00;99.90;;;;;;4993179;28;20411;-71
2022/07/11 06:43:25;;;;;;;2.93;0.93;;;23.00;99.90;;;;;;4993026;28;20427;-71
2022/07/11 06:45:51;;;;;;;2.00;0.90;;;23.80;99.90;;;;;;4992987;28;20412;-71
2022/07/11 06:48:17;;;;;;;2.70;1.00;;;23.40;99.90;;;;;;4993151;28;20253;-70
2022/07/11 06:50:43;;;;;;;2.57;0.97;;;23.40;99.90;;;;;;4992769;28;20251;-70
2022/07/11 06:53:09;;;;;;;1.43;0.90;;;23.50;99.90;;;;;;5034181;23;20219;-75
2022/07/11 06:55:34;;;;;;;3.00;1.20;;;24.10;99.90;;;;;;5031944;28;20176;-75
2022/07/11 06:58:01;;;;;;;3.83;1.10;;;24.10;99.90;;;;;;5032184;28;20803;-75
2022/07/11 07:00:29;;;;;;;1.00;0.90;;;23.60;99.90;;;;;;5032267;28;20716;-75
2022/07/11 07:02:56;;;;;;;2.70;1.10;;;23.10;99.90;;;;;;5046212;28;20894;-75
2022/07/11 07:05:24;;;;;;;1.73;0.90;;;23.20;99.90;;;;;;5051922;28;20883;-75
2022/07/11 07:07:51;;;;;;;1.57;1.00;;;23.10;99.90;;;;;;5051725;28;20450;-75
2022/07/11 07:10:16;;;;;;;3.80;1.47;;;23.40;99.90;;;;;;5051817;28;20538;-74
2022/07/11 07:12:42;;;;;;;1.20;0.80;;;25.40;99.90;;;;;;5051764;28;20951;-75
2022/07/11 07:15:09;;;;;;;1.87;1.00;;;22.40;99.90;;;;;;5051611;28;20201;-74
2022/07/11 07:17:34;;;;;;;2.73;0.80;;;23.30;99.90;;;;;;5051980;28;20168;-75
2022/07/11 07:20:00;;;;;;;1.23;0.93;;;23.10;99.90;;;;;;5051796;28;20420;-74
2022/07/11 07:22:25;;;;;;;2.10;0.73;;;22.70;99.90;;;;;;5051846;28;20252;-74
2022/07/11 07:24:51;;;;;;;2.10;1.00;;;24.90;99.90;;;;;;5052034;28;20174;-75
2022/07/11 07:27:17;;;;;;;4.13;0.80;;;24.10;99.90;;;;;;5056680;28;20220;-74
2022/07/11 07:29:42;;;;;;;1.00;0.90;;;25.00;99.90;;;;;;5062063;28;20277;-74
2022/07/11 07:32:08;;;;;;;1.77;1.57;;;23.90;99.90;;;;;;5058722;28;20187;-75
2022/07/11 07:34:33;;;;;;;1.87;1.13;;;22.50;99.90;;;;;;5055920;28;20663;-75
2022/07/11 07:36:59;;;;;;;4.37;0.97;;;23.00;99.90;;;;;;5055588;28;20174;-74
2022/07/11 07:39:25;;;;;;;3.03;1.03;;;22.90;99.90;;;;;;5055576;28;20181;-74
2022/07/11 07:41:51;;;;;;;2.00;1.10;;;21.80;99.90;;;;;;5055762;28;20510;-73
2022/07/11 07:44:16;;;;;;;1.80;0.80;;;22.70;99.90;;;;;;5055681;28;20177;-76
2022/07/11 07:46:42;;;;;;;1.77;1.10;;;22.50;99.90;;;;;;5056217;28;20174;-75
2022/07/11 07:49:07;;;;;;;2.53;1.10;;;23.20;99.90;;;;;;5055936;28;20233;-75
2022/07/11 07:51:33;;;;;;;1.53;1.00;;;22.60;99.90;;;;;;5055696;28;20701;-75
2022/07/11 07:53:59;;;;;;;2.80;1.50;;;21.80;99.90;;;;;;5056036;28;20162;-76
2022/07/11 07:56:25;;;;;;;1.53;0.80;;;22.30;99.90;;;;;;5055627;28;20174;-76
2022/07/11 07:58:51;;;;;;;0.90;0.80;;;21.80;99.90;;;;;;5055828;28;20165;-77
2022/07/11 08:01:35;;;;;;;4.53;1.23;;;23.90;99.90;;;;;;5055608;28;20417;-77
2022/07/11 08:04:05;;;;;;;2.50;1.20;;;24.40;99.90;;;;;;5055792;28;20408;-76
2022/07/11 08:06:31;;;;;;;2.50;1.07;;;25.20;99.90;;;;;;5055656;28;20416;-76
2022/07/11 08:08:57;;;;;;;1.87;0.90;;;24.70;99.90;;;;;;5056849;28;20510;-75
2022/07/11 08:11:22;;;;;;;1.60;1.03;;;24.40;99.70;;;;;;5057552;28;20401;-76
2022/07/11 08:13:49;;;;;;;2.60;1.00;;;23.80;99.90;;;;;;5058983;28;20163;-75
2022/07/11 08:16:14;;;;;;;2.20;0.90;;;22.80;99.90;;;;;;5056701;28;20250;-75
2022/07/11 08:18:40;;;;;;;2.37;0.80;;;24.80;99.90;;;;;;5055702;28;20436;-76
2022/07/11 08:21:06;;;;;;;1.60;0.90;;;24.10;99.30;;;;;;5054948;28;20251;-75
2022/07/11 08:23:31;;;;;;;1.10;0.80;;;23.50;99.90;;;;;;5048917;28;20197;-76
2022/07/11 08:25:57;;;;;;;3.03;1.40;;;24.80;99.00;;;;;;5041620;28;20664;-76
2022/07/11 08:28:23;;;;;;;2.10;1.00;;;25.00;97.30;;;;;;5035831;28;20194;-76
2022/07/11 08:30:48;;;;;;;1.53;0.90;;;24.30;97.70;;;;;;5035121;28;20460;-75
2022/07/11 08:33:14;;;;;;;6.00;1.10;;;21.60;99.90;;;;;;5054436;28;20198;-75
2022/07/11 08:35:40;;;;;;;1.47;0.80;;;23.20;99.90;;;;;;5054166;28;20174;-75
2022/07/11 08:38:06;;;;;;;1.00;0.70;;;24.10;98.90;;;;;;5053448;28;20421;-75
2022/07/11 08:40:31;;;;;;;2.00;1.10;;;25.40;97.50;;;;;;5053366;28;20175;-75
2022/07/11 08:42:58;;;;;;;2.37;1.00;;;25.10;97.10;;;;;;5054121;28;20189;-75
2022/07/11 08:45:29;;;;;;;2.87;1.00;;;25.70;97.40;;;;;;5053685;28;20540;-75
2022/07/11 08:47:57;;;;;;;1.77;1.17;;;25.50;96.70;;;;;;5054329;28;20397;-75
2022/07/11 08:50:23;;;;;;;2.20;1.10;;;25.60;96.10;;;;;;5054224;28;20468;-75
2022/07/11 08:52:49;;;;;;;1.83;1.10;;;24.60;96.90;;;;;;5053992;28;20433;-75
2022/07/11 08:55:14;;;;;;;1.93;0.90;;;25.20;96.50;;;;;;5053853;28;20462;-75
2022/07/11 08:57:40;;;;;;;2.63;1.23;;;23.50;97.40;;;;;;5052854;28;20167;-76
2022/07/11 09:00:11;;;;;;;1.27;0.77;;;24.90;98.40;;;;;;5053982;28;20212;-75
2022/07/11 09:02:40;;;;;;;1.40;0.90;;;24.40;96.70;;;;;;5053954;28;20436;-76
2022/07/11 09:05:07;;;;;;;2.00;1.43;;;24.30;97.90;;;;;;5053778;28;20801;-76
2022/07/11 09:07:34;;;;;;;2.23;2.03;;;25.10;96.20;;;;;;5053999;28;20401;-76
2022/07/11 09:10:00;;;;;;;2.13;0.80;;;25.30;95.90;;;;;;5053787;28;20452;-76
2022/07/11 09:12:25;;;;;;;2.00;1.17;;;25.70;95.60;;;;;;5054037;28;20429;-76
2022/07/11 09:14:52;;;;;;;0.80;0.70;;;25.40;96.60;;;;;;5053690;28;20171;-76
2022/07/11 09:17:28;;;;;;;3.30;1.30;;;25.80;94.90;;;;;;5053866;28;20261;-75
2022/07/11 09:19:54;;;;;;;1.47;1.27;;;25.10;94.70;;;;;;5053813;28;20412;-75
2022/07/11 09:25:25;;;;;;;1.37;1.03;;;25.30;94.80;;;;;;5032955;28;20412;-76
2022/07/11 09:27:54;;;;;;;2.60;1.73;;;24.90;94.80;;;;;;5032991;28;20395;-76
2022/07/11 09:30:29;;;;;;;2.23;1.10;;;23.10;97.50;;;;;;5032992;28;20938;-75
2022/07/11 09:33:03;;;;;;;3.17;1.10;;;22.60;99.70;;;;;;5052525;28;20425;-75
2022/07/11 09:35:31;;;;;;;7.03;1.20;;;24.30;97.00;;;;;;5052859;28;20401;-75
2022/07/11 09:37:57;;;;;;;3.07;1.17;;;24.70;96.10;;;;;;5053172;28;20412;-76
2022/07/11 09:40:25;;;;;;;2.43;1.10;;;24.80;96.40;;;;;;5052958;28;20480;-77
2022/07/11 09:42:56;;;;;;;7.93;1.20;;;24.10;97.00;;;;;;5052946;28;20419;-76
2022/07/11 09:45:24;;;;;;;1.70;1.20;;;24.20;96.50;;;;;;5052857;28;20409;-75
2022/07/11 09:47:52;;;;;;;1.20;0.90;;;23.90;96.80;;;;;;5051631;28;20417;-76
2022/07/11 09:50:19;;;;;;;2.20;0.80;;;24.20;96.60;;;;;;5051814;28;20459;-76
2022/07/11 09:53:08;;;;;;;1.57;0.93;;;24.40;93.80;;;;;;5051296;28;20523;-76
2022/07/11 09:55:36;;;;;;;1.30;1.20;;;25.00;93.70;;;;;;5052667;28;20710;-76
2022/07/11 09:58:11;;;;;;;5.50;1.17;;;25.20;93.50;;;;;;5041342;28;20811;-77
2022/07/11 10:00:38;;;;;;;3.93;1.10;;;24.20;94.60;;;;;;5035740;28;20402;-75
2022/07/11 10:03:05;;;;;;;0.83;0.80;;;24.80;94.50;;;;;;5039119;28;20509;-75
2022/07/11 10:05:32;;;;;;;1.10;0.80;;;24.60;94.20;;;;;;5032626;28;20471;-76
2022/07/11 10:07:58;;;;;;;1.47;0.80;;;24.50;92.70;;;;;;5032721;28;20410;-76
2022/07/11 10:10:26;;;;;;;1.30;1.03;;;23.30;95.30;;;;;;5032664;28;20503;-75
2022/07/11 10:12:52;;;;;;;2.50;1.00;;;23.70;95.40;;;;;;5032675;28;20521;-76
2022/07/11 10:15:31;;;;;;;1.10;0.80;;;24.00;94.90;;;;;;5033271;28;20402;-76
2022/07/11 10:18:15;;;;;;;2.60;1.00;;;24.00;94.80;;;;;;5033230;28;20495;-76
2022/07/11 10:21:01;;;;;;;1.50;1.00;;;23.70;93.60;;;;;;5032810;28;20472;-75
2022/07/11 10:23:35;;;;;;;1.53;0.90;;;23.90;93.30;;;;;;5036109;28;20420;-76
2022/07/11 10:26:42;;;;;;;0.73;0.70;;;24.30;91.30;;;;;;5051854;28;20442;-75
2022/07/11 10:29:15;;;;;;;2.43;1.20;;;23.70;93.60;;;;;;4997500;28;20850;-75
2022/07/11 10:31:41;;;;;;;1.17;0.90;;;23.60;92.90;;;;;;5050527;28;20433;-75
2022/07/11 10:34:18;;;;;;;1.00;0.70;;;23.40;93.80;;;;;;5051922;28;20844;-75
2022/07/11 10:36:44;;;;;;;1.20;1.10;;;23.50;93.20;;;;;;5052391;28;20204;-74
2022/07/11 10:39:17;;;;;;;2.30;0.90;;;23.80;92.20;;;;;;5052141;28;20424;-80
2022/07/11 10:41:46;;;;;;;1.70;0.90;;;23.40;92.60;;;;;;5052244;28;20439;-75
2022/07/11 10:44:12;;;;;;;1.57;1.47;;;23.70;93.10;;;;;;5053211;28;20416;-74
2022/07/11 10:46:37;;;;;;;1.57;1.27;;;24.10;92.80;;;;;;5053086;28;20447;-75
2022/07/11 10:49:36;;;;;;;0.70;0.70;;;23.70;92.80;;;;;;5051809;28;20231;-76
2022/07/11 10:52:07;;;;;;;1.67;0.80;;;23.70;92.00;;;;;;5051781;28;20208;-76
2022/07/11 10:55:02;;;;;;;1.60;1.07;;;22.70;94.70;;;;;;5051716;28;20418;-76
2022/07/11 10:57:51;;;;;;;0.77;0.77;;;22.80;93.90;;;;;;5051559;28;20414;-76
2022/07/11 11:00:20;;;;;;;1.00;0.70;;;23.50;93.20;;;;;;5033341;28;20419;-76
2022/07/11 11:03:05;;;;;;;2.17;1.10;;;22.80;93.10;;;;;;5031763;28;20432;-75
2022/07/11 11:05:49;;;;;;;1.87;1.20;;;23.00;92.10;;;;;;5031635;28;20411;-76
2022/07/11 11:08:36;;;;;;;1.50;1.00;;;22.70;92.70;;;;;;5031878;28;20845;-76
2022/07/11 11:11:05;;;;;;;0.70;0.70;;;23.00;93.40;;;;;;5051208;28;20451;-76
2022/07/11 11:13:35;;;;;;;1.47;1.10;;;22.60;93.40;;;;;;5051659;28;20446;-76
2022/07/11 11:16:02;;;;;;;1.27;0.80;;;22.70;93.10;;;;;;5051336;28;20407;-76
2022/07/11 11:18:35;;;;;;;2.50;1.23;;;22.40;92.80;;;;;;5051665;28;20421;-76
2022/07/11 11:21:00;;;;;;;1.53;1.00;;;22.90;93.40;;;;;;5051772;28;20440;-76
2022/07/11 11:23:32;;;;;;;1.73;1.10;;;22.60;92.50;;;;;;5047667;28;20472;-76
2022/07/11 11:26:18;;;;;;;1.00;0.80;;;23.20;93.30;;;;;;5031656;28;20225;-76
2022/07/11 11:29:05;;;;;;;2.10;1.20;;;23.10;92.60;;;;;;5031643;28;20526;-76
2022/07/11 11:31:31;;;;;;;2.47;0.90;;;23.80;92.10;;;;;;5040352;28;20420;-76
2022/07/11 11:33:58;;;;;;;3.00;1.00;;;23.90;92.40;;;;;;5051378;28;20403;-76
2022/07/11 11:36:25;;;;;;;2.10;1.73;;;23.60;92.00;;;;;;5051303;28;20453;-76
2022/07/11 11:38:52;;;;;;;2.97;1.60;;;23.00;92.00;;;;;;5051495;28;20422;-76
2022/07/11 11:41:29;;;;;;;1.77;1.00;;;23.70;92.40;;;;;;5051290;28;20411;-76
2022/07/11 11:43:59;;;;;;;1.73;1.07;;;23.10;92.30;;;;;;5051527;28;20408;-75
2022/07/11 11:46:30;;;;;;;1.70;0.90;;;23.30;92.30;;;;;;5051275;28;20453;-75
2022/07/11 11:49:00;;;;;;;1.73;1.03;;;23.80;92.10;;;;;;5056499;28;20457;-75
2022/07/11 11:51:30;;;;;;;1.73;0.70;;;23.70;92.50;;;;;;5051775;28;20413;-75
2022/07/11 11:53:59;;;;;;;1.43;0.70;;;23.80;92.10;;;;;;5051223;28;20448;-76
2022/07/11 11:56:29;;;;;;;4.83;0.70;;;23.80;91.40;;;;;;5051179;28;20410;-76
2022/07/11 11:58:59;;;;;;;1.07;1.00;;;23.90;90.80;;;;;;5050948;28;20934;-75
2022/07/11 12:01:37;;;;;;;0.97;0.87;;;23.60;90.70;;;;;;5051680;28;20958;-76
2022/07/11 12:04:05;;;;;;;2.43;1.10;;;23.90;92.20;;;;;;5052296;28;20395;-76
2022/07/11 12:06:33;;;;;;;3.37;2.03;;;23.80;91.70;;;;;;5051423;28;20412;-75
2022/07/11 12:09:46;;;;;;;2.03;0.97;;;24.20;92.50;;;;;;5051891;28;20554;-76
2022/07/11 12:14:55;;;;;;;2.57;1.10;;;24.10;89.00;;;;;;5055409;28;20419;-76
2022/07/11 12:17:26;;;;;;;0.60;0.60;;;23.60;90.50;;;;;;5055750;28;20400;-75
2022/07/11 12:19:52;;;;;;;1.20;1.00;;;23.30;89.80;;;;;;5055613;28;20407;-76
2022/07/11 12:22:18;;;;;;;0.80;0.80;;;23.70;90.40;;;;;;5055512;28;20905;-76
2022/07/11 12:24:52;;;;;;;1.07;0.90;;;23.30;90.60;;;;;;5054755;28;20185;-76
2022/07/11 12:27:19;;;;;;;1.93;0.70;;;22.90;90.90;;;;;;5054924;28;20496;-76
2022/07/11 12:29:49;;;;;;;2.40;0.97;;;23.00;90.70;;;;;;5054788;28;20442;-76
2022/07/11 12:32:15;;;;;;;1.50;0.90;;;22.70;90.70;;;;;;5054177;28;20441;-76
2022/07/11 12:34:46;;;;;;;1.80;0.90;;;22.70;91.50;;;;;;5054341;28;20761;-76
2022/07/11 12:37:14;;;;;;;0.77;0.70;;;23.20;90.70;;;;;;5053783;28;20419;-76
2022/07/11 12:39:52;;;;;;;2.27;0.70;;;23.00;91.40;;;;;;5054371;28;20889;-76
2022/07/11 12:42:28;;;;;;;1.90;1.30;;;23.20;92.00;;;;;;5054171;28;21009;-75
2022/07/11 12:45:17;;;;;;;1.00;0.80;;;24.00;91.60;;;;;;5053853;28;20407;-75
2022/07/11 12:47:45;;;;;;;1.30;0.97;;;24.50;87.90;;;;;;5046247;28;20561;-76
2022/07/11 12:50:20;;;;;;;3.73;0.93;;;24.70;86.10;;;;;;5053942;28;20459;-75
2022/07/11 12:52:49;;;;;;;0.80;0.70;;;25.20;82.40;;;;;;5052103;23;20512;-71
2022/07/11 12:55:25;;;;;;;1.30;0.87;;;24.80;82.60;;;;;;5014473;28;20406;-70
2022/07/11 12:58:05;;;;;;;1.70;1.10;;;25.20;84.80;;;;;;5014698;28;20383;-71